Impacts METAR Board
IDs:

KIAD - Washington/Dulles In, VA, US

Updated at: 1700 UTC 26 Oct 2021
Potential Impact None Slight Moderate High
Time 26/05Z 26/06Z 26/07Z 26/08Z 26/09Z 26/10Z 26/11Z 26/12Z 26/13Z 26/14Z 26/15Z 26/16Z 26/17Z
Temp60 60 59 59 58 58 59 59 60 61 64 63 63
Dewpt58 58 57 57 56 55 54 52 50 51 51 47 47
Altim29.62 29.60 29.59 29.58 29.58 29.58 29.58 29.58 29.59 29.58 29.57 29.57 29.58
VIS10 10 10 10 10 10 10 10 10 10 10 10 10
CIG100 120 -- 90 -- -- 48 95 140 95 95 75 --
CoverOVCOVCSCTBKNSCTSCTBKNBKNBKNBKNBKNBKNSCT
FltCatVFRVFRVFRVFRVFRVFRVFRVFRVFRVFRVFRVFRVFR
WX--------------------------
WDir290320330340340310320310320310310290300
WSpd3 6 4 3 5 7 10 15 12 17 18 23 23
WGst-- -- -- -- -- -- -- 24 20 25 27 35 36
Raw hourly METARs
KIAD 260452Z 29003KT 10SM FEW055 SCT070 OVC100 16/14 A2962 RMK AO2 SLP027 T01560144 402670156 $
KIAD 260552Z 32006KT 10SM FEW012 FEW095 BKN120 OVC250 16/14 A2960 RMK AO2 SLP022 60078 T01560144 10172 20156 56027 $
KIAD 260652Z 33004KT 10SM SCT120 15/14 A2959 RMK AO2 SLP016 T01500139 $
KIAD 260752Z 34003KT 10SM BKN090 15/14 A2958 RMK AO2 SLP013 T01500139 $
KIAD 260852Z 34005KT 10SM SCT090 14/13 A2958 RMK AO2 SLP013 T01440133 55009 $
KIAD 260952Z 31007KT 10SM SCT075 14/13 A2958 RMK AO2 SLP017 T01440128 $
KIAD 261052Z 32010KT 10SM BKN048 BKN100 15/12 A2958 RMK AO2 SLP015 T01500122 $
KIAD 261152Z 31015G24KT 10SM FEW045 BKN095 15/11 A2958 RMK AO2 RAB22E30 SLP016 P0000 60000 70242 T01500111 10156 20139 51002
KIAD 261252Z 32012G20KT 10SM SCT110 BKN140 16/10 A2959 RMK AO2 SLP018 T01560100
KIAD 261352Z 31017G25KT 10SM FEW065 BKN095 BKN140 16/11 A2958 RMK AO2 PK WND 31028/1334 RAB34E44 SLP014 P0000 T01610106
KIAD 261452Z 31018G27KT 10SM SCT033 BKN095 BKN170 18/11 A2957 RMK AO2 PK WND 28029/1423 SLP013 60000 T01780106 58003 $
KIAD 261552Z 29023G35KT 10SM FEW034 BKN075 BKN095 17/08 A2957 RMK AO2 PK WND 29035/1552 SLP013 T01720083 $
KIAD 261652Z 30023G36KT 10SM SCT085 17/08 A2958 RMK AO2 PK WND 28041/1553 SLP015 T01720083



Page loaded:  17:28 UTC  |   10:28 AM Pacific  |   11:28 AM Mountain  |   12:28 PM Central  |   01:28 PM Eastern

 

ADVISORIES

FORECASTS

FORECASTS

OBSERVATIONS

USER TOOLS

ABOUT US